Time;durP1;ratioP1;P1;durP2;ratioP2;P2;SDS_P1;SDS_P2;PMS_P1;PMS_P2;Temp;Humidity;BMP_temperature;BMP_pressure;BME280_temperature;BME280_humidity;BME280_pressure;Samples;Min_cycle;Max_cycle;Signal;HPM_P1;HPM_P2
2022/08/23 00:02:07;;;;;;;8.10;4.60;;;18.80;99.90;;;;;;4963380;28;38041;-58
2022/08/23 00:04:39;;;;;;;11.73;4.22;;;18.80;99.90;;;;;;4964633;28;36592;-58
2022/08/23 00:07:09;;;;;;;11.40;4.00;;;18.80;99.90;;;;;;4963503;28;38360;-58
2022/08/23 00:09:36;;;;;;;10.10;4.20;;;18.80;99.90;;;;;;4962387;28;38546;-58
2022/08/23 00:12:09;;;;;;;9.90;4.70;;;18.70;99.90;;;;;;4963998;28;38594;-58
2022/08/23 00:14:40;;;;;;;8.65;4.13;;;18.70;99.90;;;;;;4963588;28;34447;-58
2022/08/23 00:17:09;;;;;;;8.20;3.78;;;18.80;99.90;;;;;;4963427;28;38973;-58
2022/08/23 00:19:39;;;;;;;12.07;4.95;;;18.70;99.90;;;;;;4964002;28;37745;-58
2022/08/23 00:22:07;;;;;;;7.80;3.88;;;18.70;99.90;;;;;;4963438;28;37848;-59
2022/08/23 00:24:35;;;;;;;7.93;3.25;;;18.70;99.90;;;;;;4963175;28;36686;-58
2022/08/23 00:27:06;;;;;;;9.15;3.95;;;18.70;99.90;;;;;;4962708;28;38056;-58
2022/08/23 00:29:36;;;;;;;7.10;3.55;;;18.60;99.90;;;;;;4962766;28;37007;-59
2022/08/23 00:32:06;;;;;;;8.75;4.55;;;18.60;99.90;;;;;;4963129;28;38013;-58
2022/08/23 00:34:34;;;;;;;11.27;4.47;;;18.50;99.90;;;;;;4961234;28;37932;-58
2022/08/23 00:37:04;;;;;;;8.95;4.20;;;18.40;99.90;;;;;;4963471;28;37544;-58
2022/08/23 00:39:31;;;;;;;8.25;4.25;;;18.40;99.90;;;;;;4964034;28;38336;-58
2022/08/23 00:42:00;;;;;;;6.82;3.88;;;18.40;99.90;;;;;;4962836;28;36462;-58
2022/08/23 00:50:15;;;;;;;15.30;4.75;;;18.30;99.90;;;;;;4962978;28;36950;-58
2022/08/23 00:52:49;;;;;;;10.68;3.70;;;18.30;99.90;;;;;;4964358;28;38002;-58
2022/08/23 00:55:18;;;;;;;9.40;4.35;;;18.30;99.90;;;;;;4963957;28;36661;-58
2022/08/23 00:57:46;;;;;;;7.85;4.57;;;18.20;99.90;;;;;;4962876;28;37701;-58
2022/08/23 01:00:14;;;;;;;10.55;4.80;;;18.20;99.90;;;;;;4963400;28;38420;-58
2022/08/23 01:02:42;;;;;;;5.43;2.90;;;18.20;99.90;;;;;;4964422;28;37720;-58
2022/08/23 01:05:11;;;;;;;5.68;2.13;;;18.20;99.90;;;;;;4963562;28;36784;-58
2022/08/23 01:07:47;;;;;;;7.22;4.00;;;18.20;99.90;;;;;;4963787;28;38286;-58
2022/08/23 01:10:23;;;;;;;7.20;3.80;;;18.10;99.90;;;;;;4964362;28;38132;-58
2022/08/23 01:12:56;;;;;;;4.75;2.70;;;18.10;99.90;;;;;;4963368;28;36438;-58
2022/08/23 01:15:26;;;;;;;3.33;1.70;;;18.10;99.90;;;;;;4964431;28;39295;-58
2022/08/23 01:18:01;;;;;;;1.67;1.00;;;18.10;99.90;;;;;;4962800;28;38225;-58
2022/08/23 01:20:34;;;;;;;2.42;1.15;;;18.10;99.90;;;;;;4963566;28;39491;-58
2022/08/23 01:23:08;;;;;;;3.65;2.08;;;18.00;99.90;;;;;;4964111;28;38138;-58
2022/08/23 01:25:37;;;;;;;4.28;2.35;;;18.00;99.90;;;;;;4960347;28;36504;-58
2022/08/23 01:28:06;;;;;;;10.18;4.95;;;18.00;99.90;;;;;;4964119;28;37092;-58
2022/08/23 01:30:34;;;;;;;5.85;3.42;;;18.00;99.90;;;;;;4962345;28;38097;-58
2022/08/23 01:33:04;;;;;;;6.95;4.95;;;18.00;99.90;;;;;;4963775;28;37652;-58
2022/08/23 01:35:37;;;;;;;6.55;4.45;;;18.00;99.90;;;;;;4964161;28;36501;-59
2022/08/23 01:38:05;;;;;;;5.80;3.80;;;18.00;99.90;;;;;;4962824;28;37585;-58
2022/08/23 01:40:33;;;;;;;7.60;3.92;;;18.10;99.90;;;;;;4962731;28;37879;-58
2022/08/23 01:43:02;;;;;;;5.88;4.07;;;18.00;99.90;;;;;;4962220;28;38756;-58
2022/08/23 01:45:30;;;;;;;7.95;4.25;;;18.00;99.90;;;;;;4962496;28;36366;-58
2022/08/23 01:47:58;;;;;;;6.82;4.07;;;18.00;99.90;;;;;;4964403;28;38089;-58
2022/08/23 01:50:26;;;;;;;9.43;4.82;;;18.00;99.90;;;;;;4964426;28;38328;-58
2022/08/23 01:52:53;;;;;;;7.07;3.72;;;18.00;99.90;;;;;;4965496;28;37729;-58
2022/08/23 01:55:21;;;;;;;6.55;3.30;;;18.00;99.90;;;;;;4964575;28;36546;-58
2022/08/23 01:57:52;;;;;;;5.43;3.33;;;18.00;99.90;;;;;;4965778;28;38310;-58
2022/08/23 02:00:25;;;;;;;5.75;3.10;;;18.00;99.90;;;;;;4965598;28;38617;-58
2022/08/23 02:02:52;;;;;;;5.78;2.70;;;18.00;99.90;;;;;;4965711;28;37745;-58
2022/08/23 02:05:19;;;;;;;6.28;3.72;;;18.00;99.90;;;;;;4965932;28;35396;-58
2022/08/23 02:07:47;;;;;;;8.18;4.50;;;17.90;99.90;;;;;;4965186;28;38152;-58
2022/08/23 02:10:15;;;;;;;7.40;4.38;;;18.00;99.90;;;;;;4966309;28;38103;-58
2022/08/23 02:12:42;;;;;;;7.32;4.45;;;17.90;99.90;;;;;;4965593;28;38249;-58
2022/08/23 02:15:10;;;;;;;7.90;4.28;;;17.90;99.90;;;;;;4966406;28;36746;-58
2022/08/23 02:17:39;;;;;;;8.07;4.57;;;17.90;99.90;;;;;;4966654;28;37713;-58
2022/08/23 02:20:08;;;;;;;8.10;4.07;;;17.80;99.90;;;;;;4964600;28;37990;-58
2022/08/23 02:22:37;;;;;;;6.45;4.07;;;17.80;99.90;;;;;;4965315;28;39241;-58
2022/08/23 02:25:06;;;;;;;6.45;4.05;;;17.80;99.90;;;;;;4965057;28;36541;-58
2022/08/23 02:27:34;;;;;;;7.03;4.65;;;17.80;99.90;;;;;;4963749;28;37657;-58
2022/08/23 02:30:01;;;;;;;7.05;3.53;;;17.80;99.90;;;;;;4966015;28;38326;-58
2022/08/23 02:32:28;;;;;;;1.30;0.77;;;17.80;99.90;;;;;;4966344;28;39974;-58
2022/08/23 02:34:57;;;;;;;0.70;0.40;;;17.80;99.90;;;;;;4966191;28;36508;-58
2022/08/23 02:37:25;;;;;;;1.88;0.90;;;17.70;99.90;;;;;;4964778;28;38298;-58
2022/08/23 02:39:52;;;;;;;0.80;0.70;;;17.60;99.90;;;;;;4964504;28;38616;-58
2022/08/23 02:42:19;;;;;;;4.15;2.08;;;17.60;99.90;;;;;;4965058;28;40228;-58
2022/08/23 02:44:47;;;;;;;3.08;1.63;;;17.60;99.90;;;;;;4963814;28;36832;-58
2022/08/23 02:47:14;;;;;;;3.03;1.98;;;17.50;99.90;;;;;;4964903;28;36265;-58
2022/08/23 02:49:42;;;;;;;6.43;1.52;;;17.50;99.90;;;;;;4964785;28;39404;-58
2022/08/23 02:52:10;;;;;;;2.90;1.20;;;17.50;99.90;;;;;;4965726;28;38998;-58
2022/08/23 02:54:38;;;;;;;2.97;1.45;;;17.50;99.90;;;;;;4966080;28;36579;-58
2022/08/23 02:57:06;;;;;;;3.95;1.48;;;17.40;99.90;;;;;;4965214;28;37261;-58
2022/08/23 02:59:34;;;;;;;3.25;1.60;;;17.40;99.90;;;;;;4965738;28;37778;-58
2022/08/23 03:02:01;;;;;;;3.75;2.15;;;17.40;99.90;;;;;;4965109;28;37596;-58
2022/08/23 03:04:28;;;;;;;3.72;2.20;;;17.40;99.90;;;;;;4964864;28;36584;-58
2022/08/23 03:06:56;;;;;;;3.28;1.67;;;17.40;99.90;;;;;;4964888;28;37109;-58
2022/08/23 03:09:24;;;;;;;5.68;1.67;;;17.40;99.90;;;;;;4964235;28;38563;-58
2022/08/23 03:11:52;;;;;;;1.80;1.00;;;17.50;99.90;;;;;;4965074;28;37782;-58
2022/08/23 03:14:19;;;;;;;2.45;1.63;;;17.50;99.90;;;;;;4964849;28;35223;-58
2022/08/23 03:16:46;;;;;;;4.25;2.20;;;17.50;99.90;;;;;;4963736;28;36785;-58
2022/08/23 03:19:13;;;;;;;4.65;2.40;;;17.50;99.90;;;;;;4964792;28;39003;-58
2022/08/23 03:21:41;;;;;;;3.53;2.47;;;17.50;99.90;;;;;;4964412;28;36387;-58
2022/08/23 03:24:10;;;;;;;5.55;2.80;;;17.60;99.90;;;;;;4964004;28;35955;-58
2022/08/23 03:26:42;;;;;;;5.97;2.95;;;17.60;99.90;;;;;;4964688;28;37567;-58
2022/08/23 03:29:09;;;;;;;6.13;3.55;;;17.50;99.90;;;;;;4963130;28;41143;-58
2022/08/23 03:31:37;;;;;;;6.18;3.55;;;17.60;99.90;;;;;;4964671;28;38776;-58
2022/08/23 03:34:05;;;;;;;7.50;4.25;;;17.50;99.90;;;;;;4964675;28;37664;-58
2022/08/23 03:36:33;;;;;;;11.25;5.70;;;17.50;99.90;;;;;;4963801;28;36355;-58
2022/08/23 03:39:01;;;;;;;8.63;5.72;;;17.60;99.90;;;;;;4964783;28;36907;-58
2022/08/23 03:41:29;;;;;;;11.40;6.10;;;17.60;99.90;;;;;;4963569;28;38838;-58
2022/08/23 03:43:58;;;;;;;9.55;6.18;;;17.70;99.90;;;;;;4963498;28;39406;-58
2022/08/23 03:46:25;;;;;;;8.77;5.75;;;17.70;99.90;;;;;;4964347;28;37552;-58
2022/08/23 03:48:55;;;;;;;8.82;5.97;;;17.70;99.90;;;;;;4964348;28;39361;-58
2022/08/23 03:51:24;;;;;;;8.48;4.97;;;17.70;99.90;;;;;;4963332;28;37731;-58
2022/08/23 03:53:51;;;;;;;10.90;6.18;;;17.70;99.90;;;;;;4965092;28;35261;-58
2022/08/23 03:56:23;;;;;;;9.38;6.20;;;17.70;99.90;;;;;;4962717;28;37615;-58
2022/08/23 03:58:50;;;;;;;8.55;5.28;;;17.70;99.90;;;;;;4963038;28;37929;-58
2022/08/23 04:01:19;;;;;;;8.02;4.85;;;17.70;99.90;;;;;;4964331;28;37563;-58
2022/08/23 04:03:47;;;;;;;5.22;2.78;;;17.70;99.90;;;;;;4965022;28;36507;-58
2022/08/23 04:06:15;;;;;;;9.52;4.82;;;17.70;99.90;;;;;;4964105;28;37250;-58
2022/08/23 04:08:42;;;;;;;9.10;6.28;;;17.60;99.90;;;;;;4963067;28;37665;-58
2022/08/23 04:11:10;;;;;;;12.18;6.45;;;17.60;99.90;;;;;;4961543;28;37554;-58
2022/08/23 04:13:38;;;;;;;10.25;5.93;;;17.60;99.90;;;;;;4963796;28;36206;-58
2022/08/23 04:16:07;;;;;;;11.30;7.28;;;17.60;99.90;;;;;;4964713;28;37447;-58
2022/08/23 04:18:36;;;;;;;14.60;8.82;;;17.70;99.90;;;;;;4964120;28;39236;-58
2022/08/23 04:21:08;;;;;;;12.30;8.10;;;17.70;99.90;;;;;;4963572;28;38057;-58
2022/08/23 04:23:36;;;;;;;11.73;7.88;;;17.80;99.90;;;;;;4964404;28;35948;-58
2022/08/23 04:26:05;;;;;;;13.25;8.63;;;17.70;99.90;;;;;;4962999;28;37736;-58
2022/08/23 04:28:32;;;;;;;11.95;7.72;;;17.80;99.90;;;;;;4963339;28;37938;-58
2022/08/23 04:31:00;;;;;;;13.02;7.57;;;17.80;99.90;;;;;;4963066;28;36650;-58
2022/08/23 04:33:29;;;;;;;11.73;7.97;;;17.90;99.90;;;;;;4963601;28;35386;-58
2022/08/23 04:35:57;;;;;;;11.07;7.57;;;17.80;99.90;;;;;;4963335;28;36137;-58
2022/08/23 04:38:25;;;;;;;10.18;7.57;;;17.80;99.90;;;;;;4961869;28;36835;-58
2022/08/23 04:43:38;;;;;;;11.15;6.43;;;17.80;99.90;;;;;;4963679;28;38246;-58
2022/08/23 04:46:06;;;;;;;12.07;7.40;;;17.70;99.90;;;;;;4962913;28;37444;-58
2022/08/23 04:48:35;;;;;;;13.95;8.93;;;17.80;99.90;;;;;;4964665;28;21866;-58
2022/08/23 04:51:04;;;;;;;12.80;7.65;;;17.80;99.90;;;;;;4963337;28;38263;-58
2022/08/23 04:53:34;;;;;;;11.80;7.20;;;17.80;99.90;;;;;;4964183;28;36842;-58
2022/08/23 04:56:02;;;;;;;13.93;8.52;;;17.80;99.90;;;;;;4962645;28;41714;-58
2022/08/23 04:58:30;;;;;;;11.10;7.50;;;17.70;99.90;;;;;;4963653;28;38037;-58
2022/08/23 05:01:00;;;;;;;11.68;7.00;;;17.70;99.90;;;;;;4960772;28;38757;-58
2022/08/23 05:03:28;;;;;;;13.27;8.18;;;17.70;99.90;;;;;;4962550;28;36294;-59
2022/08/23 05:05:56;;;;;;;13.80;6.93;;;17.70;99.90;;;;;;4961070;28;37450;-58
2022/08/23 05:08:26;;;;;;;12.82;6.95;;;17.80;99.90;;;;;;4962151;28;37731;-58
2022/08/23 05:10:53;;;;;;;9.60;6.78;;;17.80;99.90;;;;;;4961570;28;36727;-58
2022/08/23 05:13:21;;;;;;;9.95;6.13;;;17.80;99.90;;;;;;4961438;28;36538;-58
2022/08/23 05:15:51;;;;;;;9.45;5.85;;;17.80;99.90;;;;;;4963314;28;37553;-58
2022/08/23 05:18:18;;;;;;;15.75;8.60;;;17.90;99.90;;;;;;4962901;28;36836;-58
2022/08/23 05:20:46;;;;;;;14.75;9.48;;;17.90;99.90;;;;;;4961502;28;38096;-58
2022/08/23 05:23:13;;;;;;;12.27;8.32;;;17.90;99.90;;;;;;4962790;28;36696;-59
2022/08/23 05:25:51;;;;;;;14.35;8.90;;;18.00;99.90;;;;;;4961568;28;36219;-58
2022/08/23 05:28:20;;;;;;;14.57;8.73;;;18.10;99.90;;;;;;4962047;28;36978;-61
2022/08/23 05:30:55;;;;;;;12.30;7.88;;;18.20;99.90;;;;;;4963111;28;38080;-61
2022/08/23 05:33:22;;;;;;;12.88;7.93;;;18.20;99.90;;;;;;4961698;28;37930;-62
2022/08/23 05:35:50;;;;;;;9.82;7.75;;;18.40;99.90;;;;;;4963214;28;40724;-62
2022/08/23 05:38:18;;;;;;;12.80;7.03;;;18.50;99.90;;;;;;4962243;28;39190;-61
2022/08/23 05:40:49;;;;;;;15.15;7.82;;;18.60;99.90;;;;;;4960619;28;38920;-58
2022/08/23 05:43:16;;;;;;;12.85;8.77;;;18.60;99.90;;;;;;4961678;28;37652;-58
2022/08/23 05:45:43;;;;;;;11.88;8.52;;;18.70;99.90;;;;;;4960825;28;38802;-58
2022/08/23 05:48:11;;;;;;;13.18;8.90;;;18.70;99.90;;;;;;4960244;28;38749;-58
2022/08/23 05:50:39;;;;;;;12.63;8.85;;;18.80;99.90;;;;;;4961749;28;37923;-59
2022/08/23 05:53:09;;;;;;;12.20;8.10;;;18.80;99.90;;;;;;4962908;28;35227;-58
2022/08/23 05:55:37;;;;;;;13.98;8.60;;;18.80;99.90;;;;;;4959771;28;37815;-58
2022/08/23 05:58:05;;;;;;;13.40;9.70;;;19.00;99.90;;;;;;4960378;28;39416;-58
2022/08/23 06:00:33;;;;;;;15.05;9.40;;;19.10;99.90;;;;;;4959897;28;38397;-58
2022/08/23 06:03:00;;;;;;;13.55;9.18;;;19.10;99.90;;;;;;4961685;28;36724;-58
2022/08/23 06:05:28;;;;;;;14.77;9.15;;;19.10;99.90;;;;;;4961834;28;37913;-58
2022/08/23 06:07:56;;;;;;;12.05;9.15;;;19.10;99.90;;;;;;4961767;28;38163;-58
2022/08/23 06:10:24;;;;;;;12.77;9.40;;;19.00;99.90;;;;;;4962893;28;38204;-58
2022/08/23 06:12:52;;;;;;;13.20;9.23;;;19.00;99.90;;;;;;4959604;28;35373;-58
2022/08/23 06:15:20;;;;;;;17.48;10.27;;;18.90;99.90;;;;;;4962001;28;37456;-58
2022/08/23 06:17:48;;;;;;;12.90;10.00;;;18.90;99.90;;;;;;4961457;28;38015;-58
2022/08/23 06:20:15;;;;;;;19.10;10.68;;;18.80;99.90;;;;;;4960468;28;38726;-58
2022/08/23 06:22:42;;;;;;;12.15;9.82;;;18.90;99.90;;;;;;4961145;28;37459;-58
2022/08/23 06:25:10;;;;;;;16.00;11.27;;;18.90;99.90;;;;;;4961745;28;40040;-58
2022/08/23 06:27:37;;;;;;;16.63;10.13;;;19.00;99.90;;;;;;4959538;28;39371;-58
2022/08/23 06:30:07;;;;;;;13.75;10.68;;;19.00;99.90;;;;;;4960238;28;37685;-58
2022/08/23 06:32:35;;;;;;;14.57;11.43;;;19.10;99.90;;;;;;4961375;28;37534;-58
2022/08/23 06:35:03;;;;;;;15.52;10.07;;;19.20;99.90;;;;;;4959967;28;38636;-58
2022/08/23 06:37:30;;;;;;;13.68;9.88;;;19.20;99.90;;;;;;4962740;28;36734;-61
2022/08/23 06:39:57;;;;;;;17.35;10.25;;;19.30;99.90;;;;;;4962907;28;40412;-61
2022/08/23 06:42:25;;;;;;;15.43;10.30;;;19.30;99.90;;;;;;4961865;28;37230;-60
2022/08/23 06:44:52;;;;;;;12.23;9.68;;;19.40;99.90;;;;;;4962921;28;36878;-58
2022/08/23 06:47:19;;;;;;;13.85;9.30;;;19.40;99.90;;;;;;4962602;28;38146;-58
2022/08/23 06:49:48;;;;;;;12.80;9.70;;;19.40;99.90;;;;;;4965678;28;36867;-58
2022/08/23 06:52:15;;;;;;;13.00;9.13;;;19.50;99.90;;;;;;4964682;28;36540;-58
2022/08/23 06:54:45;;;;;;;11.63;9.50;;;19.50;99.90;;;;;;4964299;28;37710;-61
2022/08/23 06:57:13;;;;;;;14.30;9.80;;;19.60;99.90;;;;;;4963758;28;36153;-61
2022/08/23 06:59:40;;;;;;;12.30;8.70;;;19.70;99.90;;;;;;4964240;28;37211;-58
2022/08/23 07:02:09;;;;;;;11.27;8.52;;;19.70;99.90;;;;;;4957296;28;37581;-58
2022/08/23 07:04:38;;;;;;;10.77;8.50;;;19.80;99.90;;;;;;4956409;28;37999;-58
2022/08/23 07:07:08;;;;;;;11.45;7.80;;;19.80;99.90;;;;;;4962064;28;37701;-58
2022/08/23 07:09:36;;;;;;;12.18;8.52;;;19.80;99.90;;;;;;4962849;28;37918;-58
2022/08/23 07:12:04;;;;;;;10.48;6.95;;;19.90;99.90;;;;;;4965089;28;34875;-58
2022/08/23 07:14:32;;;;;;;11.57;7.47;;;20.00;99.90;;;;;;4964736;28;36079;-61
2022/08/23 07:17:02;;;;;;;8.70;7.00;;;20.00;99.90;;;;;;4965286;28;38283;-61
2022/08/23 07:19:31;;;;;;;10.40;7.30;;;20.10;99.90;;;;;;4964564;28;36473;-61
2022/08/23 07:21:59;;;;;;;12.40;6.68;;;20.10;99.90;;;;;;4964390;28;36723;-58
2022/08/23 07:24:29;;;;;;;8.23;6.18;;;20.20;99.90;;;;;;4962817;28;38071;-62
2022/08/23 07:26:57;;;;;;;10.48;6.82;;;20.30;99.90;;;;;;4963401;28;37540;-61
2022/08/23 07:29:24;;;;;;;9.18;5.93;;;20.30;99.90;;;;;;4961813;28;38271;-61
2022/08/23 07:31:55;;;;;;;8.55;5.97;;;20.40;99.90;;;;;;4965180;28;36912;-62
2022/08/23 07:34:23;;;;;;;11.93;6.15;;;20.50;99.90;;;;;;4964175;28;36811;-61
2022/08/23 07:36:52;;;;;;;7.35;5.53;;;20.50;99.90;;;;;;4964394;28;38728;-58
2022/08/23 07:39:21;;;;;;;8.38;6.10;;;20.60;99.90;;;;;;4961933;28;38758;-58
2022/08/23 07:41:51;;;;;;;8.63;5.35;;;20.60;99.90;;;;;;4963339;28;35204;-58
2022/08/23 07:44:20;;;;;;;9.23;5.60;;;20.70;99.90;;;;;;4961509;28;38922;-58
2022/08/23 07:46:48;;;;;;;7.65;4.38;;;20.80;99.90;;;;;;4960794;28;37889;-58
2022/08/23 07:49:16;;;;;;;7.45;5.20;;;20.80;99.90;;;;;;4959205;28;39326;-59
2022/08/23 07:51:47;;;;;;;8.73;4.95;;;20.90;99.90;;;;;;4959705;28;36437;-58
2022/08/23 07:54:16;;;;;;;8.68;5.63;;;21.00;99.90;;;;;;4960807;28;37581;-58
2022/08/23 07:56:44;;;;;;;11.52;5.18;;;21.00;99.90;;;;;;4962411;28;38341;-58
2022/08/23 07:59:13;;;;;;;7.15;5.15;;;21.10;99.90;;;;;;4956408;28;37718;-58
2022/08/23 08:01:43;;;;;;;9.93;5.38;;;21.10;99.90;;;;;;4964064;28;38278;-61
2022/08/23 08:04:11;;;;;;;9.27;5.38;;;21.20;99.90;;;;;;4960820;28;37178;-61
2022/08/23 08:06:41;;;;;;;9.15;5.00;;;21.20;99.90;;;;;;4959669;28;39312;-61
2022/08/23 08:09:09;;;;;;;9.75;5.00;;;21.30;99.90;;;;;;4962148;28;36298;-61
2022/08/23 08:11:37;;;;;;;9.15;5.13;;;21.40;99.90;;;;;;4964374;28;35327;-58
2022/08/23 08:14:07;;;;;;;8.15;4.20;;;21.50;99.80;;;;;;4964102;28;37830;-61
2022/08/23 08:16:38;;;;;;;9.40;4.75;;;21.50;99.50;;;;;;4964149;28;38452;-62
2022/08/23 08:19:08;;;;;;;8.07;4.38;;;21.60;99.20;;;;;;4959990;28;36375;-58
2022/08/23 08:21:36;;;;;;;6.50;4.10;;;21.70;98.70;;;;;;4960157;28;37229;-58
2022/08/23 08:24:04;;;;;;;6.45;4.00;;;21.90;98.50;;;;;;4962854;28;38433;-58
2022/08/23 08:26:32;;;;;;;9.82;4.00;;;21.90;98.40;;;;;;4963618;28;38496;-61
2022/08/23 08:28:59;;;;;;;7.47;3.85;;;22.00;98.00;;;;;;4963754;28;37907;-61
2022/08/23 08:31:27;;;;;;;8.75;4.20;;;22.10;97.80;;;;;;4962519;28;37245;-61
2022/08/23 08:33:55;;;;;;;9.10;4.18;;;22.20;97.70;;;;;;4963364;28;37530;-61
2022/08/23 08:36:32;;;;;;;7.85;3.38;;;22.30;97.50;;;;;;4963771;28;38341;-58
2022/08/23 08:38:59;;;;;;;8.02;3.67;;;22.30;97.50;;;;;;4963042;28;36592;-61
2022/08/23 08:41:47;;;;;;;9.23;3.95;;;22.50;98.00;;;;;;4962787;28;36738;-61
2022/08/23 08:44:24;;;;;;;9.30;3.50;;;22.50;97.70;;;;;;4962327;28;36307;-58
2022/08/23 08:46:55;;;;;;;9.98;3.40;;;22.70;97.80;;;;;;4957970;28;38386;-58
2022/08/23 08:49:33;;;;;;;9.27;3.75;;;22.70;97.60;;;;;;4960690;28;37839;-61
2022/08/23 08:52:08;;;;;;;5.05;2.92;;;22.80;97.90;;;;;;4963153;28;36667;-61
2022/08/23 08:54:37;;;;;;;8.02;2.80;;;22.80;97.80;;;;;;4962659;28;36240;-58
2022/08/23 08:57:08;;;;;;;7.57;3.05;;;23.00;97.80;;;;;;4961935;28;36843;-58
2022/08/23 08:59:47;;;;;;;6.50;3.17;;;23.10;97.50;;;;;;4959078;28;37082;-58
2022/08/23 09:02:18;;;;;;;5.65;3.50;;;23.20;97.50;;;;;;4957281;28;37311;-58
2022/08/23 09:04:47;;;;;;;5.63;2.80;;;23.30;97.50;;;;;;4962691;28;36231;-58
2022/08/23 09:07:23;;;;;;;9.13;3.05;;;23.40;97.20;;;;;;4962405;28;38237;-58
2022/08/23 09:10:33;;;;;;;6.32;3.30;;;23.50;96.60;;;;;;4960771;28;38877;-61
2022/08/23 09:13:16;;;;;;;8.73;3.08;;;23.60;96.10;;;;;;4952973;28;36793;-61
2022/08/23 09:15:57;;;;;;;7.70;2.63;;;23.70;95.80;;;;;;4963221;28;36167;-58
2022/08/23 09:18:25;;;;;;;5.18;3.00;;;23.80;95.50;;;;;;4960975;28;39227;-62
2022/08/23 09:20:56;;;;;;;10.93;3.65;;;24.00;95.40;;;;;;4961064;28;37854;-61
2022/08/23 09:23:31;;;;;;;6.45;2.47;;;24.10;95.00;;;;;;4962951;28;37511;-58
2022/08/23 09:26:00;;;;;;;11.77;3.08;;;24.20;93.90;;;;;;4962355;28;36270;-59
2022/08/23 09:28:31;;;;;;;8.05;2.70;;;24.20;92.80;;;;;;4961264;28;39196;-58
2022/08/23 09:31:00;;;;;;;8.82;2.97;;;24.20;93.50;;;;;;4963003;28;36405;-58
2022/08/23 09:33:37;;;;;;;6.07;2.42;;;24.10;93.00;;;;;;4959627;28;36674;-61
2022/08/23 09:36:15;;;;;;;9.23;2.35;;;24.10;92.80;;;;;;4960102;28;37511;-62
2022/08/23 09:38:52;;;;;;;4.50;2.30;;;24.00;92.80;;;;;;4961914;28;38149;-62
2022/08/23 09:41:25;;;;;;;7.30;2.53;;;23.90;92.50;;;;;;4962382;28;36318;-62
2022/08/23 09:43:54;;;;;;;9.80;3.25;;;23.90;93.00;;;;;;4962431;28;36961;-62
2022/08/23 09:46:27;;;;;;;8.40;2.63;;;24.00;92.60;;;;;;4961339;28;37826;-61
2022/08/23 09:48:57;;;;;;;7.75;2.95;;;24.10;92.30;;;;;;4961816;28;37768;-58
2022/08/23 09:51:32;;;;;;;5.88;2.53;;;24.20;91.70;;;;;;4961349;28;37077;-58
2022/08/23 09:54:10;;;;;;;10.32;2.95;;;24.40;91.50;;;;;;4962647;28;36786;-63
2022/08/23 09:56:40;;;;;;;9.73;4.05;;;24.50;91.10;;;;;;4962310;28;39107;-58
2022/08/23 09:59:34;;;;;;;9.40;3.08;;;24.70;91.20;;;;;;4962945;28;38209;-58
2022/08/23 10:02:02;;;;;;;8.07;3.35;;;24.80;91.30;;;;;;4961944;28;36569;-62
2022/08/23 10:04:44;;;;;;;7.68;2.95;;;24.90;91.70;;;;;;4962005;28;36628;-63
2022/08/23 10:07:25;;;;;;;5.40;2.40;;;25.00;91.10;;;;;;4963120;28;37737;-58
2022/08/23 10:09:53;;;;;;;8.73;2.80;;;25.10;90.00;;;;;;4965851;28;39001;-62
2022/08/23 10:12:21;;;;;;;6.90;2.90;;;25.20;90.00;;;;;;4966805;28;37840;-58
2022/08/23 10:14:48;;;;;;;8.00;2.78;;;25.30;90.20;;;;;;4965706;28;36462;-62
2022/08/23 10:17:32;;;;;;;5.35;2.47;;;25.30;89.60;;;;;;4965635;28;37356;-62
2022/08/23 10:20:24;;;;;;;5.75;2.10;;;25.40;86.80;;;;;;4965456;28;39019;-58
2022/08/23 10:23:03;;;;;;;7.00;1.95;;;25.50;85.90;;;;;;4965564;28;39146;-59
2022/08/23 10:25:37;;;;;;;5.18;2.35;;;25.50;84.40;;;;;;4964216;28;35391;-62
2022/08/23 10:31:12;;;;;;;6.07;2.20;;;25.50;84.00;;;;;;4966600;28;39062;-58
2022/08/23 10:33:48;;;;;;;5.87;2.00;;;25.60;83.20;;;;;;4965902;28;38873;-58
2022/08/23 10:36:23;;;;;;;5.07;1.73;;;25.60;81.70;;;;;;4965732;28;35899;-58
2022/08/23 10:38:56;;;;;;;4.78;1.90;;;25.70;82.10;;;;;;4966589;28;36928;-59
2022/08/23 10:41:46;;;;;;;5.13;1.90;;;25.70;80.10;;;;;;4965795;28;38153;-58
2022/08/23 10:44:24;;;;;;;4.95;2.25;;;25.70;81.00;;;;;;4964047;28;37903;-58
2022/08/23 10:47:02;;;;;;;5.32;2.10;;;25.80;81.90;;;;;;4965321;28;36326;-59
2022/08/23 10:49:30;;;;;;;7.75;1.83;;;25.80;82.90;;;;;;4966175;28;37600;-59
2022/08/23 10:51:59;;;;;;;6.05;2.47;;;25.80;83.30;;;;;;4966401;28;38751;-62
2022/08/23 10:54:44;;;;;;;5.43;2.10;;;25.80;82.00;;;;;;4965153;28;41929;-62
2022/08/23 10:57:16;;;;;;;6.82;2.15;;;25.80;83.70;;;;;;4964901;28;36570;-62
2022/08/23 10:59:46;;;;;;;4.88;2.53;;;25.90;82.60;;;;;;4965220;28;39195;-62
2022/08/23 11:02:22;;;;;;;5.93;1.95;;;25.90;81.50;;;;;;4963255;28;38042;-62
2022/08/23 11:04:55;;;;;;;5.78;2.35;;;26.00;81.80;;;;;;4964399;28;38089;-58
2022/08/23 11:07:28;;;;;;;5.88;2.30;;;26.10;82.20;;;;;;4965709;28;36282;-58
2022/08/23 11:10:10;;;;;;;5.45;2.17;;;26.10;80.50;;;;;;4965925;28;36194;-58
2022/08/23 11:12:53;;;;;;;9.05;2.20;;;26.20;79.70;;;;;;4965994;28;38199;-62
2022/08/23 11:15:28;;;;;;;5.63;2.03;;;26.20;79.70;;;;;;4965782;28;37502;-59
2022/08/23 11:18:07;;;;;;;9.23;2.35;;;26.30;78.90;;;;;;4964719;28;37629;-58
2022/08/23 11:20:58;;;;;;;7.10;2.40;;;26.30;80.00;;;;;;4964700;28;38288;-59
2022/08/23 11:23:44;;;;;;;5.45;2.15;;;26.40;79.20;;;;;;4966355;28;39020;-59
2022/08/23 11:27:05;;;;;;;6.32;2.05;;;26.40;77.70;;;;;;4965443;28;37660;-58
2022/08/23 11:29:39;;;;;;;6.40;1.90;;;26.40;77.30;;;;;;4966078;28;36774;-61
2022/08/23 11:32:33;;;;;;;7.90;2.35;;;26.40;78.80;;;;;;4965274;28;38401;-58
2022/08/23 11:35:18;;;;;;;;;;;26.40;77.90;;;;;;4962237;28;40575;-58
2022/08/23 11:37:56;;;;;;;8.02;2.15;;;26.50;80.10;;;;;;4954918;28;35531;-58
2022/08/23 11:40:39;;;;;;;7.47;2.30;;;26.50;76.60;;;;;;4964573;28;35945;-62
2022/08/23 11:43:12;;;;;;;6.17;2.00;;;26.50;76.80;;;;;;4964239;28;36421;-62
2022/08/23 11:45:45;;;;;;;7.63;2.17;;;26.50;75.70;;;;;;4964935;28;38252;-61
2022/08/23 11:48:18;;;;;;;7.65;2.03;;;26.50;75.70;;;;;;4964974;28;38188;-61
2022/08/23 11:51:02;;;;;;;6.43;2.38;;;26.60;73.90;;;;;;4963698;28;37640;-58
2022/08/23 11:53:57;;;;;;;5.95;2.45;;;26.50;73.60;;;;;;4964434;28;38040;-61
2022/08/23 11:56:41;;;;;;;5.22;2.17;;;26.50;74.30;;;;;;4963966;28;38686;-62
2022/08/23 11:59:37;;;;;;;8.07;2.20;;;26.50;73.60;;;;;;4964683;28;38012;-59
2022/08/23 12:02:32;;;;;;;7.63;2.38;;;26.60;73.90;;;;;;4964651;28;36781;-58
2022/08/23 12:05:02;;;;;;;3.80;1.85;;;26.60;70.90;;;;;;4965394;28;38850;-58
2022/08/23 12:07:51;;;;;;;6.28;2.20;;;26.60;71.30;;;;;;4965493;28;39403;-62
2022/08/23 12:10:44;;;;;;;7.47;2.15;;;26.60;70.70;;;;;;4963297;28;37534;-61
2022/08/23 12:13:43;;;;;;;5.10;1.83;;;26.70;71.00;;;;;;4964834;28;35859;-59
2022/08/23 12:16:28;;;;;;;9.75;2.30;;;26.60;71.30;;;;;;4964598;28;37490;-58
2022/08/23 12:18:59;;;;;;;4.55;1.80;;;26.60;69.40;;;;;;4963887;28;37904;-62
2022/08/23 12:21:32;;;;;;;6.15;2.33;;;26.60;69.20;;;;;;4964615;28;36438;-59
2022/08/23 12:24:01;;;;;;;;;;;26.60;68.00;;;;;;4964941;28;37035;-62
2022/08/23 12:26:38;;;;;;;6.07;2.03;;;26.60;70.30;;;;;;4963515;28;37711;-62
2022/08/23 12:29:18;;;;;;;9.40;2.17;;;26.60;70.10;;;;;;4964620;28;39262;-58
2022/08/23 12:31:54;;;;;;;3.60;1.70;;;26.60;68.70;;;;;;4963913;28;37576;-58
2022/08/23 12:34:27;;;;;;;7.72;2.10;;;26.60;69.80;;;;;;4964241;28;36457;-59
2022/08/23 12:36:59;;;;;;;;;;;26.60;69.40;;;;;;4964361;28;37296;-58
2022/08/23 12:39:31;;;;;;;6.00;1.75;;;26.70;72.40;;;;;;4963353;28;38182;-58
2022/08/23 12:42:06;;;;;;;5.15;1.98;;;26.60;70.40;;;;;;4964155;28;37641;-62
2022/08/23 12:44:34;;;;;;;6.57;1.92;;;26.60;69.80;;;;;;4964130;28;36337;-62
2022/08/23 12:47:16;;;;;;;5.25;1.90;;;26.50;70.70;;;;;;4965073;28;38712;-58
2022/08/23 12:49:56;;;;;;;4.85;1.95;;;26.50;71.20;;;;;;4963013;28;37013;-62
2022/08/23 12:52:26;;;;;;;5.90;1.70;;;26.50;69.20;;;;;;4964643;28;38262;-63
2022/08/23 12:54:56;;;;;;;6.55;2.10;;;26.50;70.60;;;;;;4962112;28;35282;-62
2022/08/23 12:57:32;;;;;;;7.70;2.15;;;26.50;71.00;;;;;;4963495;28;37971;-58
2022/08/23 13:00:12;;;;;;;7.93;2.42;;;26.50;71.30;;;;;;4963861;28;37963;-62
2022/08/23 13:02:42;;;;;;;7.95;2.03;;;26.60;70.70;;;;;;4961733;28;37311;-61
2022/08/23 13:05:16;;;;;;;5.60;1.83;;;26.60;68.10;;;;;;4962313;28;37768;-58
2022/08/23 13:07:44;;;;;;;7.25;2.08;;;26.70;68.30;;;;;;4962296;28;39539;-58
2022/08/23 13:10:12;;;;;;;5.53;2.17;;;26.70;69.10;;;;;;4962821;28;37857;-58
2022/08/23 13:12:41;;;;;;;7.13;2.28;;;26.70;68.60;;;;;;4962865;28;40700;-58
2022/08/23 13:15:10;;;;;;;8.27;1.90;;;26.70;67.50;;;;;;4962405;28;37037;-58
2022/08/23 13:17:39;;;;;;;4.75;1.73;;;26.70;68.10;;;;;;4960557;28;37847;-56
2022/08/23 13:20:20;;;;;;;4.93;1.70;;;26.70;67.50;;;;;;4962881;28;39174;-56